createdAt,value
2018-07-31T00:00:35.048Z,0
2018-07-31T00:01:15.621Z,0
2018-07-31T00:01:56.189Z,0
2018-07-31T00:02:36.820Z,0
2018-07-31T00:03:17.440Z,0
2018-07-31T00:03:58.010Z,0
2018-07-31T00:04:38.583Z,0
2018-07-31T00:05:19.179Z,0
2018-07-31T00:05:59.741Z,0
2018-07-31T00:06:40.334Z,0
2018-07-31T00:07:20.920Z,0
2018-07-31T00:08:01.567Z,0
2018-07-31T00:08:42.137Z,0
2018-07-31T00:09:22.694Z,0
2018-07-31T00:10:03.261Z,0
2018-07-31T00:10:43.842Z,0
2018-07-31T00:11:24.396Z,0
2018-07-31T00:12:04.948Z,0
2018-07-31T00:12:45.566Z,0
2018-07-31T00:13:26.118Z,0
2018-07-31T00:14:06.716Z,0
2018-07-31T00:14:47.288Z,0
2018-07-31T00:15:27.994Z,0
2018-07-31T00:16:08.560Z,0
2018-07-31T00:16:49.118Z,0
2018-07-31T00:17:29.683Z,0
2018-07-31T00:18:10.239Z,0
2018-07-31T00:18:50.969Z,0
2018-07-31T00:19:31.523Z,0
2018-07-31T00:20:12.105Z,0
2018-07-31T00:20:52.676Z,0
2018-07-31T00:21:33.231Z,0
2018-07-31T00:22:13.809Z,0
2018-07-31T00:22:54.365Z,0
2018-07-31T00:23:34.999Z,0
2018-07-31T00:24:15.629Z,0
2018-07-31T00:24:56.237Z,0
2018-07-31T00:25:36.799Z,0
2018-07-31T00:26:17.370Z,0
2018-07-31T00:26:57.940Z,0
2018-07-31T00:27:38.476Z,0
2018-07-31T00:28:19.082Z,0
2018-07-31T00:28:59.638Z,0
2018-07-31T00:29:40.269Z,0
2018-07-31T00:30:20.891Z,0
2018-07-31T00:31:01.393Z,0
2018-07-31T00:31:41.967Z,0
2018-07-31T00:32:22.535Z,0
2018-07-31T00:33:03.126Z,0
2018-07-31T00:33:43.682Z,0
2018-07-31T00:34:24.248Z,0
2018-07-31T00:35:04.817Z,0
2018-07-31T00:35:45.505Z,0
2018-07-31T00:36:26.143Z,0
2018-07-31T00:37:06.711Z,0
2018-07-31T00:37:47.281Z,0
2018-07-31T00:38:27.879Z,0
2018-07-31T00:39:08.441Z,0
2018-07-31T00:39:49.036Z,0
2018-07-31T00:40:29.694Z,0
2018-07-31T00:41:10.272Z,0
2018-07-31T00:41:50.878Z,0
2018-07-31T00:42:31.432Z,0
2018-07-31T00:43:12.012Z,0
2018-07-31T00:43:52.580Z,0
2018-07-31T00:44:33.152Z,0
2018-07-31T00:45:13.725Z,0
2018-07-31T00:45:54.282Z,0
2018-07-31T00:46:34.880Z,0
2018-07-31T00:47:15.476Z,0
2018-07-31T00:47:56.040Z,0
2018-07-31T00:48:36.623Z,0
2018-07-31T00:49:17.181Z,0
2018-07-31T00:49:57.778Z,0
2018-07-31T00:50:38.336Z,0
2018-07-31T00:51:18.938Z,0
2018-07-31T00:51:59.524Z,0
2018-07-31T00:52:40.099Z,0
2018-07-31T00:53:20.680Z,0
2018-07-31T00:54:01.243Z,0
2018-07-31T00:54:41.806Z,0
2018-07-31T00:55:22.376Z,0
2018-07-31T00:56:02.957Z,0
2018-07-31T00:56:43.529Z,0
2018-07-31T00:57:24.220Z,0
2018-07-31T00:58:04.761Z,0
2018-07-31T00:58:45.332Z,0
2018-07-31T00:59:25.899Z,0
2018-07-31T01:00:06.465Z,0
2018-07-31T01:00:47.051Z,0
2018-07-31T01:01:27.601Z,0
2018-07-31T01:02:08.172Z,0
2018-07-31T01:02:48.743Z,0
2018-07-31T01:03:29.323Z,0
2018-07-31T01:04:09.896Z,0
2018-07-31T01:04:50.473Z,0
2018-07-31T01:05:31.029Z,0
2018-07-31T01:06:11.592Z,0
2018-07-31T01:06:52.151Z,0
2018-07-31T01:07:32.728Z,0
2018-07-31T01:08:13.319Z,0
2018-07-31T01:08:53.907Z,0
2018-07-31T01:09:34.484Z,0
2018-07-31T01:10:15.066Z,0
2018-07-31T01:10:55.671Z,0
2018-07-31T01:11:36.277Z,0
2018-07-31T01:12:16.857Z,0
2018-07-31T01:12:57.434Z,0
2018-07-31T01:13:37.993Z,0
2018-07-31T01:14:18.620Z,0
2018-07-31T01:14:59.174Z,0
2018-07-31T01:15:39.788Z,0
2018-07-31T01:16:20.411Z,0
2018-07-31T01:17:00.951Z,0
2018-07-31T01:17:41.593Z,0
2018-07-31T01:18:22.170Z,0
2018-07-31T01:19:02.743Z,0
2018-07-31T01:19:43.312Z,0
2018-07-31T01:20:23.886Z,0
2018-07-31T01:21:04.451Z,0
2018-07-31T01:21:45.038Z,0
2018-07-31T01:22:25.594Z,0
2018-07-31T01:23:06.211Z,0
2018-07-31T01:23:46.839Z,0
2018-07-31T01:24:27.444Z,0
2018-07-31T01:25:08.012Z,0
2018-07-31T01:25:48.668Z,0
2018-07-31T01:26:29.244Z,0
2018-07-31T01:27:09.929Z,0
2018-07-31T01:27:50.464Z,0
2018-07-31T01:28:31.086Z,0
2018-07-31T01:29:11.637Z,0
2018-07-31T01:29:52.232Z,0
2018-07-31T01:30:32.809Z,0
2018-07-31T01:31:13.406Z,0
2018-07-31T01:31:53.979Z,0
2018-07-31T01:32:34.535Z,0
2018-07-31T01:33:15.118Z,0
2018-07-31T01:33:55.739Z,0
2018-07-31T01:34:36.272Z,0
2018-07-31T01:35:16.908Z,0
2018-07-31T01:35:57.474Z,0
2018-07-31T01:36:38.014Z,0
2018-07-31T01:37:18.632Z,0
2018-07-31T01:37:59.192Z,0
2018-07-31T01:38:39.758Z,0
2018-07-31T01:39:20.322Z,0
2018-07-31T01:40:00.880Z,0
2018-07-31T01:40:41.445Z,0
2018-07-31T01:41:22.006Z,0
2018-07-31T01:42:02.595Z,0
2018-07-31T01:42:43.155Z,0
2018-07-31T01:43:23.729Z,0
2018-07-31T01:44:04.277Z,0
2018-07-31T01:44:44.858Z,0
2018-07-31T01:45:25.433Z,0
2018-07-31T01:46:06.063Z,0
2018-07-31T01:46:46.572Z,0
2018-07-31T01:47:27.131Z,0
2018-07-31T01:48:07.697Z,0
2018-07-31T01:48:48.270Z,0
2018-07-31T01:49:28.846Z,0
2018-07-31T01:50:09.415Z,0
2018-07-31T01:50:49.989Z,0
2018-07-31T01:51:30.579Z,0
2018-07-31T01:52:11.155Z,0
2018-07-31T01:52:51.715Z,0
2018-07-31T01:53:32.285Z,0
2018-07-31T01:54:12.879Z,0
2018-07-31T01:54:53.442Z,0
2018-07-31T01:55:34.041Z,0
2018-07-31T01:56:14.613Z,0
2018-07-31T01:56:55.182Z,0
2018-07-31T01:57:35.754Z,0
2018-07-31T01:58:16.316Z,0
2018-07-31T01:58:56.893Z,0
2018-07-31T01:59:37.548Z,0
2018-07-31T02:00:18.068Z,0
2018-07-31T02:00:58.648Z,0
2018-07-31T02:01:39.220Z,0
2018-07-31T02:02:19.792Z,0
2018-07-31T02:03:00.435Z,0
2018-07-31T02:03:41.095Z,0
2018-07-31T02:04:21.669Z,0
2018-07-31T02:05:02.243Z,0
2018-07-31T02:05:42.815Z,0
2018-07-31T02:06:23.383Z,0
2018-07-31T02:07:03.954Z,0
2018-07-31T02:07:44.513Z,0
2018-07-31T02:08:25.080Z,0
2018-07-31T02:09:05.654Z,0
2018-07-31T02:09:46.251Z,0
2018-07-31T02:10:26.791Z,0
2018-07-31T02:11:07.342Z,0
2018-07-31T02:11:47.928Z,0
2018-07-31T02:12:28.633Z,0
2018-07-31T02:13:09.221Z,0
2018-07-31T02:13:49.823Z,0
2018-07-31T02:14:30.404Z,0
2018-07-31T02:15:10.997Z,0
2018-07-31T02:15:51.573Z,0
2018-07-31T02:16:32.142Z,0
2018-07-31T02:17:12.756Z,0
2018-07-31T02:17:53.278Z,0
2018-07-31T02:18:33.882Z,0
2018-07-31T02:19:14.450Z,0
2018-07-31T02:19:55.067Z,0
2018-07-31T02:20:35.629Z,0
2018-07-31T02:21:16.189Z,0
2018-07-31T02:21:56.755Z,0
2018-07-31T02:22:37.336Z,0
2018-07-31T02:23:17.881Z,0
2018-07-31T02:23:58.442Z,0
2018-07-31T02:24:39.018Z,0
2018-07-31T02:25:19.607Z,0
2018-07-31T02:26:00.203Z,0
2018-07-31T02:26:40.781Z,0
2018-07-31T02:27:21.344Z,0
2018-07-31T02:28:01.953Z,0
2018-07-31T02:28:42.592Z,0
2018-07-31T02:29:23.054Z,0
2018-07-31T02:30:03.662Z,0
2018-07-31T02:30:44.235Z,0
2018-07-31T02:31:24.880Z,0
2018-07-31T02:32:05.442Z,0
2018-07-31T02:32:45.993Z,0
2018-07-31T02:33:26.551Z,0
2018-07-31T02:34:07.123Z,0
2018-07-31T02:34:47.728Z,0
2018-07-31T02:35:28.296Z,0
2018-07-31T02:36:08.858Z,0
2018-07-31T02:36:49.464Z,0
2018-07-31T02:37:30.037Z,0
2018-07-31T02:38:10.596Z,0
2018-07-31T02:38:51.179Z,0
2018-07-31T02:39:31.744Z,0
2018-07-31T02:40:12.319Z,0
2018-07-31T02:40:52.897Z,0
2018-07-31T02:41:33.546Z,0
2018-07-31T02:42:14.105Z,0
2018-07-31T02:42:54.766Z,0
2018-07-31T02:43:35.328Z,0
2018-07-31T02:44:15.898Z,0
2018-07-31T02:44:56.488Z,0
2018-07-31T02:45:37.063Z,0
2018-07-31T02:46:17.644Z,0
2018-07-31T02:46:58.325Z,0
2018-07-31T02:47:38.826Z,0
2018-07-31T02:48:19.406Z,0
2018-07-31T02:48:59.960Z,0
2018-07-31T02:49:40.538Z,0
2018-07-31T02:50:21.099Z,0
2018-07-31T02:51:01.678Z,0
2018-07-31T02:51:42.234Z,0
2018-07-31T02:52:22.798Z,0
2018-07-31T02:53:03.380Z,0
2018-07-31T02:53:43.955Z,0
2018-07-31T02:54:24.516Z,0
2018-07-31T02:55:05.078Z,0
2018-07-31T02:55:45.630Z,0
2018-07-31T02:56:26.195Z,0
2018-07-31T02:57:06.743Z,0
2018-07-31T02:57:47.308Z,0
2018-07-31T02:58:27.882Z,0
2018-07-31T02:59:08.454Z,0
2018-07-31T02:59:49.030Z,0
2018-07-31T03:00:29.617Z,0
2018-07-31T03:01:10.188Z,0
2018-07-31T03:01:50.755Z,0
2018-07-31T03:02:31.323Z,0
2018-07-31T03:03:11.893Z,0
2018-07-31T03:03:52.459Z,0
2018-07-31T03:04:33.018Z,0
2018-07-31T03:05:13.596Z,0
2018-07-31T03:05:54.169Z,0
2018-07-31T03:06:34.738Z,0
2018-07-31T03:07:15.296Z,0
2018-07-31T03:07:55.874Z,0
2018-07-31T03:08:36.453Z,0
2018-07-31T03:09:16.997Z,0
2018-07-31T03:09:57.571Z,0
2018-07-31T03:10:38.148Z,0
2018-07-31T03:11:18.716Z,0
2018-07-31T03:11:59.273Z,0
2018-07-31T03:12:39.886Z,0
2018-07-31T03:13:20.447Z,0
2018-07-31T03:14:01.079Z,0
2018-07-31T03:14:41.650Z,0
2018-07-31T03:15:22.216Z,0
2018-07-31T03:16:02.785Z,0
2018-07-31T03:16:43.357Z,0
2018-07-31T03:17:23.929Z,0
2018-07-31T03:18:04.489Z,0
2018-07-31T03:18:45.066Z,0
2018-07-31T03:19:25.695Z,0
2018-07-31T03:20:06.253Z,0
2018-07-31T03:20:46.813Z,0
2018-07-31T03:21:27.368Z,0
2018-07-31T03:22:07.947Z,0
2018-07-31T03:22:48.519Z,0
2018-07-31T03:23:29.087Z,0
2018-07-31T03:24:09.662Z,0
2018-07-31T03:24:50.240Z,0
2018-07-31T03:25:30.800Z,0
2018-07-31T03:26:11.372Z,0
2018-07-31T03:26:51.943Z,0
2018-07-31T03:27:32.518Z,0
2018-07-31T03:28:13.139Z,0
2018-07-31T03:28:53.662Z,0
2018-07-31T03:29:34.220Z,5
2018-07-31T03:30:14.787Z,5
2018-07-31T03:30:55.353Z,5
2018-07-31T03:31:35.933Z,5
2018-07-31T03:32:16.489Z,5
2018-07-31T03:32:57.068Z,5
2018-07-31T03:33:37.624Z,5
2018-07-31T03:34:18.189Z,5
2018-07-31T03:34:58.779Z,5
2018-07-31T03:35:39.344Z,5
2018-07-31T03:36:19.918Z,5
2018-07-31T03:37:00.497Z,5
2018-07-31T03:37:41.069Z,5
2018-07-31T03:38:21.648Z,5
2018-07-31T03:39:02.220Z,5
2018-07-31T03:39:42.814Z,5
2018-07-31T03:40:23.389Z,5
2018-07-31T03:41:03.963Z,5
2018-07-31T03:41:44.531Z,5
2018-07-31T03:42:25.104Z,10
2018-07-31T03:43:05.676Z,10
2018-07-31T03:43:46.246Z,10
2018-07-31T03:44:26.823Z,10
2018-07-31T03:45:07.415Z,10
2018-07-31T03:45:47.991Z,10
2018-07-31T03:46:28.587Z,10
2018-07-31T03:47:09.139Z,10
2018-07-31T03:47:49.713Z,10
2018-07-31T03:48:30.283Z,10
2018-07-31T03:49:10.857Z,10
2018-07-31T03:49:51.431Z,10
2018-07-31T03:50:32.001Z,10
2018-07-31T03:51:12.578Z,15
2018-07-31T03:51:53.151Z,15
2018-07-31T03:52:33.732Z,15
2018-07-31T03:53:14.302Z,15
2018-07-31T03:53:54.873Z,15
2018-07-31T03:54:35.446Z,15
2018-07-31T03:55:16.010Z,15
2018-07-31T03:55:56.580Z,15
2018-07-31T03:56:37.153Z,15
2018-07-31T03:57:17.727Z,15
2018-07-31T03:57:58.299Z,15
2018-07-31T03:58:38.875Z,15
2018-07-31T03:59:19.461Z,20
2018-07-31T04:00:00.054Z,20
2018-07-31T04:00:40.605Z,20
2018-07-31T04:01:21.179Z,20
2018-07-31T04:02:01.741Z,20
2018-07-31T04:02:42.317Z,20
2018-07-31T04:03:22.923Z,20
2018-07-31T04:04:03.485Z,20
2018-07-31T04:04:44.116Z,20
2018-07-31T04:05:24.661Z,20
2018-07-31T04:06:05.184Z,25
2018-07-31T04:06:45.745Z,25
2018-07-31T04:07:26.319Z,25
2018-07-31T04:08:06.890Z,25
2018-07-31T04:08:47.442Z,25
2018-07-31T04:09:28.011Z,25
2018-07-31T04:10:08.613Z,25
2018-07-31T04:10:49.173Z,25
2018-07-31T04:11:29.761Z,25
2018-07-31T04:12:10.327Z,30
2018-07-31T04:12:50.929Z,30
2018-07-31T04:13:31.499Z,30
2018-07-31T04:14:12.126Z,30
2018-07-31T04:14:52.647Z,30
2018-07-31T04:15:33.236Z,30
2018-07-31T04:16:13.840Z,30
2018-07-31T04:16:54.483Z,30
2018-07-31T04:17:34.975Z,30
2018-07-31T04:18:15.533Z,30
2018-07-31T04:18:56.120Z,35
2018-07-31T04:19:36.694Z,35
2018-07-31T04:20:17.259Z,35
2018-07-31T04:20:57.847Z,35
2018-07-31T04:21:38.415Z,35
2018-07-31T04:22:19.004Z,35
2018-07-31T04:22:59.592Z,35
2018-07-31T04:23:40.153Z,35
2018-07-31T04:24:20.741Z,35
2018-07-31T04:25:01.315Z,40
2018-07-31T04:25:41.886Z,40
2018-07-31T04:26:22.458Z,40
2018-07-31T04:27:03.038Z,40
2018-07-31T04:27:43.641Z,40
2018-07-31T04:28:24.217Z,40
2018-07-31T04:29:04.783Z,40
2018-07-31T04:29:45.369Z,40
2018-07-31T04:30:25.948Z,40
2018-07-31T04:31:06.548Z,45
2018-07-31T04:31:47.128Z,45
2018-07-31T04:32:27.701Z,45
2018-07-31T04:33:08.270Z,45
2018-07-31T04:33:48.834Z,45
2018-07-31T04:34:29.407Z,45
2018-07-31T04:35:09.960Z,45
2018-07-31T04:35:50.562Z,45
2018-07-31T04:36:31.079Z,50
2018-07-31T04:37:11.652Z,50
2018-07-31T04:37:52.215Z,50
2018-07-31T04:38:32.844Z,50
2018-07-31T04:39:13.403Z,50
2018-07-31T04:39:53.971Z,50
2018-07-31T04:40:34.532Z,50
2018-07-31T04:41:15.112Z,50
2018-07-31T04:41:55.656Z,55
2018-07-31T04:42:36.226Z,55
2018-07-31T04:43:16.793Z,55
2018-07-31T04:43:57.496Z,55
2018-07-31T04:44:38.074Z,55
2018-07-31T04:45:18.646Z,55
2018-07-31T04:45:59.204Z,55
2018-07-31T04:46:39.780Z,60
2018-07-31T04:47:20.331Z,60
2018-07-31T04:48:00.896Z,60
2018-07-31T04:48:41.474Z,60
2018-07-31T04:49:22.036Z,60
2018-07-31T04:50:02.626Z,60
2018-07-31T04:50:43.236Z,60
2018-07-31T04:51:23.797Z,60
2018-07-31T04:52:05.025Z,65
2018-07-31T04:52:44.934Z,65
2018-07-31T04:53:25.563Z,65
2018-07-31T04:54:06.139Z,65
2018-07-31T04:54:46.712Z,65
2018-07-31T04:55:27.285Z,65
2018-07-31T04:56:07.865Z,65
2018-07-31T04:56:48.488Z,65
2018-07-31T04:57:29.014Z,70
2018-07-31T04:58:09.582Z,70
2018-07-31T04:58:50.132Z,70
2018-07-31T04:59:30.702Z,70
2018-07-31T05:00:11.257Z,70
2018-07-31T05:00:51.811Z,70
2018-07-31T05:01:32.399Z,70
2018-07-31T05:02:12.967Z,75
2018-07-31T05:02:53.538Z,75
2018-07-31T05:03:34.134Z,75
2018-07-31T05:04:14.734Z,75
2018-07-31T05:04:55.264Z,75
2018-07-31T05:05:35.828Z,75
2018-07-31T05:06:16.401Z,75
2018-07-31T05:06:56.984Z,75
2018-07-31T05:07:37.561Z,80
2018-07-31T05:08:18.127Z,80
2018-07-31T05:08:58.691Z,80
2018-07-31T05:09:39.310Z,80
2018-07-31T05:10:19.840Z,80
2018-07-31T05:11:00.420Z,80
2018-07-31T05:11:41.006Z,80
2018-07-31T05:12:21.561Z,85
2018-07-31T05:13:02.150Z,85
2018-07-31T05:13:42.717Z,85
2018-07-31T05:14:23.286Z,85
2018-07-31T05:15:03.865Z,85
2018-07-31T05:15:44.427Z,85
2018-07-31T05:16:25.038Z,85
2018-07-31T05:17:05.557Z,85
2018-07-31T05:17:46.118Z,90
2018-07-31T05:18:26.768Z,90
2018-07-31T05:19:07.257Z,90
2018-07-31T05:19:47.832Z,90
2018-07-31T05:20:28.461Z,90
2018-07-31T05:21:09.018Z,90
2018-07-31T05:21:49.597Z,90
2018-07-31T05:22:30.165Z,90
2018-07-31T05:23:10.741Z,95
2018-07-31T05:23:51.310Z,95
2018-07-31T05:24:31.870Z,95
2018-07-31T05:25:12.458Z,95
2018-07-31T05:25:53.023Z,95
2018-07-31T05:26:33.596Z,95
2018-07-31T05:27:14.178Z,95
2018-07-31T05:27:54.730Z,95
2018-07-31T05:28:35.283Z,100
2018-07-31T05:29:15.845Z,100
2018-07-31T05:29:56.418Z,100
2018-07-31T05:30:36.990Z,100
2018-07-31T05:31:17.555Z,100
2018-07-31T05:31:58.118Z,105
2018-07-31T05:32:38.759Z,105
2018-07-31T05:33:19.270Z,105
2018-07-31T05:33:59.833Z,105
2018-07-31T05:34:40.413Z,110
2018-07-31T05:35:20.976Z,110
2018-07-31T05:36:01.544Z,110
2018-07-31T05:36:42.098Z,110
2018-07-31T05:37:22.673Z,110
2018-07-31T05:38:03.252Z,110
2018-07-31T05:38:43.816Z,115
2018-07-31T05:39:24.383Z,115
2018-07-31T05:40:04.944Z,120
2018-07-31T05:40:45.512Z,120
2018-07-31T05:41:26.087Z,255
2018-07-31T05:42:06.657Z,605
2018-07-31T05:42:47.223Z,1065
2018-07-31T05:43:27.810Z,1300
2018-07-31T05:44:08.376Z,1270
2018-07-31T05:44:48.946Z,1150
2018-07-31T05:45:29.516Z,1215
2018-07-31T05:46:10.127Z,1370
2018-07-31T05:46:50.652Z,1400
2018-07-31T05:47:31.223Z,1345
2018-07-31T05:48:11.795Z,1365
2018-07-31T05:48:52.361Z,1425
2018-07-31T05:49:32.942Z,1400
2018-07-31T05:50:13.518Z,1305
2018-07-31T05:50:54.076Z,1235
2018-07-31T05:51:34.645Z,1290
2018-07-31T05:52:15.219Z,1390
2018-07-31T05:52:55.805Z,1445
2018-07-31T05:53:36.383Z,1445
2018-07-31T05:54:16.948Z,1430
2018-07-31T05:54:57.527Z,1465
2018-07-31T05:55:38.099Z,1500
2018-07-31T05:56:18.679Z,1490
2018-07-31T05:56:59.250Z,1500
2018-07-31T05:57:39.825Z,1490
2018-07-31T05:58:20.415Z,1490
2018-07-31T05:59:00.984Z,1475
2018-07-31T05:59:41.563Z,1470
2018-07-31T06:00:22.113Z,1455
2018-07-31T06:01:02.696Z,1445
2018-07-31T06:01:43.273Z,1425
2018-07-31T06:02:23.838Z,1425
2018-07-31T06:03:04.415Z,1535
2018-07-31T06:03:44.984Z,1610
2018-07-31T06:04:25.573Z,1555
2018-07-31T06:05:06.144Z,1515
2018-07-31T06:05:46.726Z,1555
2018-07-31T06:06:27.301Z,1625
2018-07-31T06:07:07.873Z,1590
2018-07-31T06:07:48.444Z,1555
2018-07-31T06:08:29.034Z,1535
2018-07-31T06:09:09.610Z,1470
2018-07-31T06:09:50.204Z,1480
2018-07-31T06:10:30.780Z,1560
2018-07-31T06:11:11.365Z,1640
2018-07-31T06:11:52.024Z,1645
2018-07-31T06:12:32.608Z,1570
2018-07-31T06:13:13.178Z,1535
2018-07-31T06:13:53.759Z,1560
2018-07-31T06:14:34.335Z,1560
2018-07-31T06:15:14.957Z,1575
2018-07-31T06:15:55.482Z,1595
2018-07-31T06:16:36.070Z,1660
2018-07-31T06:17:16.649Z,1665
2018-07-31T06:17:57.235Z,1675
2018-07-31T06:18:37.806Z,1665
2018-07-31T06:19:18.378Z,1655
2018-07-31T06:19:58.994Z,1640
2018-07-31T06:20:39.573Z,1690
2018-07-31T06:21:20.230Z,1695
2018-07-31T06:22:00.798Z,1725
2018-07-31T06:22:41.399Z,1680
2018-07-31T06:23:21.999Z,1775
2018-07-31T06:24:02.640Z,1695
2018-07-31T06:24:43.211Z,1705
2018-07-31T06:25:23.791Z,1710
2018-07-31T06:26:04.356Z,1785
2018-07-31T06:26:44.938Z,1750
2018-07-31T06:27:25.517Z,1745
2018-07-31T06:28:06.096Z,1680
2018-07-31T06:28:46.672Z,1635
2018-07-31T06:29:27.255Z,1610
2018-07-31T06:30:07.824Z,1675
2018-07-31T06:30:48.400Z,1720
2018-07-31T06:31:29.013Z,1680
2018-07-31T06:32:09.602Z,1705
2018-07-31T06:32:50.190Z,1755
2018-07-31T06:33:30.766Z,1775
2018-07-31T06:34:11.351Z,1765
2018-07-31T06:34:51.932Z,1755
2018-07-31T06:35:32.514Z,1720
2018-07-31T06:36:13.100Z,1640
2018-07-31T06:36:53.687Z,1705
2018-07-31T06:37:34.277Z,1710
2018-07-31T06:38:14.862Z,1650
2018-07-31T06:38:55.428Z,1630
2018-07-31T06:39:36.014Z,1735
2018-07-31T06:40:16.598Z,1795
2018-07-31T06:40:57.167Z,1810
2018-07-31T06:41:37.749Z,1750
2018-07-31T06:42:18.332Z,1745
2018-07-31T06:42:58.924Z,1840
2018-07-31T06:43:39.500Z,1855
2018-07-31T06:44:20.122Z,1820
2018-07-31T06:45:00.662Z,1790
2018-07-31T06:45:41.228Z,1750
2018-07-31T06:46:21.811Z,1660
2018-07-31T06:47:02.394Z,1605
2018-07-31T06:47:42.958Z,1690
2018-07-31T06:48:23.560Z,1765
2018-07-31T06:49:04.143Z,1825
2018-07-31T06:49:44.736Z,1805
2018-07-31T06:50:25.504Z,1805
2018-07-31T06:51:05.934Z,1815
2018-07-31T06:51:46.509Z,1810
2018-07-31T06:52:27.089Z,1790
2018-07-31T06:53:07.669Z,1730
2018-07-31T06:53:48.252Z,1680
2018-07-31T06:54:28.835Z,1790
2018-07-31T06:55:09.415Z,1805
2018-07-31T06:55:49.978Z,1790
2018-07-31T06:56:30.646Z,1820
2018-07-31T06:58:58.622Z,1780
2018-07-31T06:59:39.237Z,1835
2018-07-31T07:00:19.797Z,1800
2018-07-31T07:01:00.378Z,1790
2018-07-31T07:01:40.947Z,1760
2018-07-31T07:02:21.535Z,1760
2018-07-31T07:03:02.104Z,1800
2018-07-31T07:03:42.669Z,1825
2018-07-31T07:04:23.238Z,1850
2018-07-31T07:05:03.828Z,1890
2018-07-31T07:05:44.408Z,1795
2018-07-31T07:06:24.988Z,1845
2018-07-31T07:07:05.570Z,1865
2018-07-31T07:07:46.144Z,1910
2018-07-31T07:08:26.715Z,1900
2018-07-31T07:09:07.322Z,1905
2018-07-31T07:09:48.021Z,1920
2018-07-31T07:10:28.476Z,1925
2018-07-31T07:11:09.052Z,1905
2018-07-31T07:11:49.629Z,1870
2018-07-31T07:12:30.221Z,1840
2018-07-31T07:13:10.795Z,1830
2018-07-31T07:13:51.373Z,1740
2018-07-31T07:14:31.949Z,1645
2018-07-31T07:15:12.532Z,1625
2018-07-31T07:15:53.109Z,1645
2018-07-31T07:16:33.693Z,1535
2018-07-31T07:17:14.280Z,1505
2018-07-31T07:17:54.868Z,1510
2018-07-31T07:18:35.447Z,1445
2018-07-31T07:19:16.014Z,1350
2018-07-31T07:19:56.594Z,1245
2018-07-31T07:20:37.183Z,1120
2018-07-31T07:21:17.761Z,1020
2018-07-31T07:21:58.371Z,955
2018-07-31T07:22:38.972Z,880
2018-07-31T07:23:19.537Z,825
2018-07-31T07:24:00.119Z,780
2018-07-31T07:24:40.685Z,740
2018-07-31T07:25:21.276Z,710
2018-07-31T07:26:01.848Z,670
2018-07-31T07:26:42.429Z,650
2018-07-31T07:27:23.026Z,630
2018-07-31T07:28:03.726Z,630
2018-07-31T07:28:44.199Z,625
2018-07-31T07:29:24.759Z,615
2018-07-31T07:30:05.447Z,610
2018-07-31T07:30:46.125Z,610
2018-07-31T07:31:26.668Z,605
2018-07-31T07:32:07.234Z,600
2018-07-31T07:32:47.802Z,595
2018-07-31T07:33:28.364Z,600
2018-07-31T07:34:08.945Z,595
2018-07-31T07:34:49.527Z,585
2018-07-31T07:35:30.106Z,575
2018-07-31T07:36:10.709Z,565
2018-07-31T07:36:51.286Z,560
2018-07-31T07:37:31.859Z,560
2018-07-31T07:38:12.450Z,565
2018-07-31T07:38:53.026Z,565
2018-07-31T07:39:33.681Z,565
2018-07-31T07:40:14.432Z,565
2018-07-31T07:40:54.984Z,565
2018-07-31T07:41:35.567Z,560
2018-07-31T07:42:16.152Z,560
2018-07-31T07:42:56.715Z,565
2018-07-31T07:43:37.325Z,565
2018-07-31T07:44:17.901Z,570
2018-07-31T07:44:58.507Z,575
2018-07-31T07:45:39.099Z,575
2018-07-31T07:46:19.680Z,575
2018-07-31T07:47:00.268Z,565
2018-07-31T07:47:40.840Z,555
2018-07-31T07:48:21.488Z,545
2018-07-31T07:49:02.065Z,540
2018-07-31T07:49:42.679Z,535
2018-07-31T07:50:23.241Z,535
2018-07-31T07:51:03.865Z,540
2018-07-31T07:51:44.454Z,540
2018-07-31T07:52:25.043Z,540
2018-07-31T07:53:05.614Z,535
2018-07-31T07:53:46.208Z,535
2018-07-31T07:54:26.782Z,530
2018-07-31T07:55:07.414Z,525
2018-07-31T07:55:48.008Z,520
2018-07-31T07:56:28.588Z,525
2018-07-31T07:57:09.164Z,530
2018-07-31T07:57:49.762Z,525
2018-07-31T07:58:30.326Z,525
2018-07-31T07:59:10.898Z,530
2018-07-31T07:59:51.460Z,535
2018-07-31T08:00:32.050Z,525
2018-07-31T08:01:12.646Z,525
2018-07-31T08:01:53.228Z,525
2018-07-31T08:02:33.808Z,520
2018-07-31T08:03:14.410Z,525
2018-07-31T08:03:54.984Z,525
2018-07-31T08:04:35.573Z,525
2018-07-31T08:05:16.134Z,510
2018-07-31T08:05:56.706Z,500
2018-07-31T08:06:37.323Z,485
2018-07-31T08:07:17.896Z,465
2018-07-31T08:07:58.458Z,435
2018-07-31T08:08:39.035Z,415
2018-07-31T08:09:19.620Z,395
2018-07-31T08:10:00.193Z,390
2018-07-31T08:10:40.776Z,385
2018-07-31T08:11:21.444Z,380
2018-07-31T08:12:02.030Z,375
2018-07-31T08:12:42.597Z,375
2018-07-31T08:13:23.194Z,370
2018-07-31T08:14:03.782Z,370
2018-07-31T08:14:44.353Z,370
2018-07-31T08:15:25.084Z,365
2018-07-31T08:16:05.659Z,365
2018-07-31T08:16:46.245Z,360
2018-07-31T08:17:26.832Z,360
2018-07-31T08:18:07.398Z,355
2018-07-31T08:18:47.962Z,350
2018-07-31T08:19:28.541Z,350
2018-07-31T08:20:09.144Z,345
2018-07-31T08:20:49.735Z,340
2018-07-31T08:21:30.319Z,335
2018-07-31T08:22:10.951Z,335
2018-07-31T08:22:51.560Z,330
2018-07-31T08:23:32.130Z,325
2018-07-31T08:24:12.706Z,320
2018-07-31T08:24:53.275Z,315
2018-07-31T08:25:33.848Z,310
2018-07-31T08:26:14.431Z,305
2018-07-31T08:26:55.021Z,300
2018-07-31T08:27:35.599Z,295
2018-07-31T08:28:16.160Z,295
2018-07-31T08:28:56.882Z,295
2018-07-31T08:29:37.316Z,290
2018-07-31T08:30:17.896Z,285
2018-07-31T08:30:58.484Z,280
2018-07-31T08:31:39.066Z,275
2018-07-31T08:32:19.644Z,275
2018-07-31T08:33:00.223Z,270
2018-07-31T08:33:40.795Z,265
2018-07-31T08:34:21.415Z,260
2018-07-31T08:35:01.978Z,260
2018-07-31T08:35:42.558Z,255
2018-07-31T08:36:23.133Z,255
2018-07-31T08:37:03.717Z,250
2018-07-31T08:37:44.281Z,245
2018-07-31T08:38:24.861Z,245
2018-07-31T08:39:05.437Z,245
2018-07-31T08:39:46.012Z,240
2018-07-31T08:40:26.587Z,240
2018-07-31T08:41:07.159Z,235
2018-07-31T08:41:47.735Z,235
2018-07-31T08:42:28.312Z,230
2018-07-31T08:43:08.881Z,230
2018-07-31T08:43:49.442Z,225
2018-07-31T08:44:30.069Z,220
2018-07-31T08:45:10.665Z,220
2018-07-31T08:45:51.251Z,220
2018-07-31T08:46:31.856Z,215
2018-07-31T08:47:12.449Z,215
2018-07-31T08:47:53.029Z,215
2018-07-31T08:48:33.582Z,210
2018-07-31T08:49:14.157Z,205
2018-07-31T08:49:54.719Z,205
2018-07-31T08:50:35.290Z,200
2018-07-31T08:51:15.905Z,200
2018-07-31T08:51:56.433Z,200
2018-07-31T08:52:37.015Z,195
2018-07-31T08:53:17.584Z,195
2018-07-31T08:53:58.162Z,195
2018-07-31T08:54:38.729Z,195
2018-07-31T08:55:19.297Z,190
2018-07-31T08:55:59.871Z,185
2018-07-31T08:56:40.455Z,185
2018-07-31T08:57:21.023Z,185
2018-07-31T08:58:01.597Z,185
2018-07-31T08:58:42.169Z,185
2018-07-31T08:59:22.752Z,185
2018-07-31T09:00:03.336Z,180
2018-07-31T09:00:43.923Z,180
2018-07-31T09:01:24.471Z,180
2018-07-31T09:02:05.058Z,180
2018-07-31T09:02:45.650Z,175
2018-07-31T09:03:26.263Z,175
2018-07-31T09:04:06.832Z,175
2018-07-31T09:04:47.403Z,175
2018-07-31T09:05:27.979Z,180
2018-07-31T09:06:08.542Z,170
2018-07-31T09:06:49.116Z,170
2018-07-31T09:07:29.679Z,170
2018-07-31T09:08:10.252Z,170
2018-07-31T09:08:50.887Z,165
2018-07-31T09:09:31.401Z,165
2018-07-31T09:10:11.971Z,165
2018-07-31T09:10:52.548Z,165
2018-07-31T09:11:33.127Z,165
2018-07-31T09:12:13.706Z,160
2018-07-31T09:12:54.268Z,160
2018-07-31T09:13:34.866Z,160
2018-07-31T09:14:15.432Z,160
2018-07-31T09:14:56.011Z,155
2018-07-31T09:15:36.581Z,155
2018-07-31T09:16:17.171Z,160
2018-07-31T09:16:57.735Z,155
2018-07-31T09:17:38.342Z,155
2018-07-31T09:18:18.880Z,150
2018-07-31T09:18:59.475Z,150
2018-07-31T09:19:40.121Z,150
2018-07-31T09:20:20.707Z,150
2018-07-31T09:21:01.284Z,150
2018-07-31T09:21:41.854Z,145
2018-07-31T09:22:22.496Z,145
2018-07-31T09:23:03.024Z,145
2018-07-31T09:23:43.601Z,145
2018-07-31T09:24:24.198Z,140
2018-07-31T09:25:04.749Z,140
2018-07-31T09:25:45.318Z,140
2018-07-31T09:26:25.905Z,140
2018-07-31T09:27:06.473Z,140
2018-07-31T09:27:47.040Z,140
2018-07-31T09:28:27.611Z,140
2018-07-31T09:29:08.175Z,140
2018-07-31T09:29:48.755Z,140
2018-07-31T09:30:29.368Z,140
2018-07-31T09:31:09.999Z,135
2018-07-31T09:31:50.474Z,135
2018-07-31T09:32:31.165Z,135
2018-07-31T09:33:11.643Z,135
2018-07-31T09:33:52.204Z,135
2018-07-31T09:34:32.774Z,135
2018-07-31T09:35:13.347Z,135
2018-07-31T09:35:53.935Z,135
2018-07-31T09:36:34.537Z,135